Terminal Aerodrome Forecast
Issued by NWS

Home | Current Version | Previous Version | Text Only | Print | Product List | Glossary On
Versions: 1 2 3 4 5 6 7 8 9 10 11 12 13 14 15 16 17 18 19
000
FTUS43 KTOP 292300
TAFFOE
TAF
KFOE 292324Z 3000/3024 18008KT P6SM FEW025 SCT040
     FM300300 28009KT P6SM VCTS SCT025 BKN040CB
      TEMPO 3004/3007 5SM -TSRA OVC015CB
     FM300700 33014G21KT P6SM SCT008 OVC015
     FM302000 36011KT P6SM BKN020=

USA.gov is the U.S. government's official web portal to all federal, state and local government web resources and services.